地図

経路データ

SID SEASON NUMBER BASIN SUBBASIN NAME ISO_TIME NATURE LAT LON WMO_WIND WMO_PRES WMO_AGENCY TRACK_TYPE DIST2LAND LANDFALL IFLAG USA_AGENCY USA_ATCF_ID USA_LAT USA_LON USA_RECORD USA_STATUS USA_WIND USA_PRES USA_SSHS USA_R34_NE USA_R34_SE USA_R34_SW USA_R34_NW USA_R50_NE USA_R50_SE USA_R50_SW USA_R50_NW USA_R64_NE USA_R64_SE USA_R64_SW USA_R64_NW USA_POCI USA_ROCI USA_RMW USA_EYE TOKYO_LAT TOKYO_LON TOKYO_GRADE TOKYO_WIND TOKYO_PRES TOKYO_R50_DIR TOKYO_R50_LONG TOKYO_R50_SHORT TOKYO_R30_DIR TOKYO_R30_LONG TOKYO_R30_SHORT TOKYO_LAND CMA_LAT CMA_LON CMA_CAT CMA_WIND CMA_PRES HKO_LAT HKO_LON HKO_CAT HKO_WIND HKO_PRES NEWDELHI_LAT NEWDELHI_LON NEWDELHI_GRADE NEWDELHI_WIND NEWDELHI_PRES NEWDELHI_CI NEWDELHI_DP NEWDELHI_POCI REUNION_LAT REUNION_LON REUNION_TYPE REUNION_WIND REUNION_PRES REUNION_TNUM REUNION_CI REUNION_RMW REUNION_R34_NE REUNION_R34_SE REUNION_R34_SW REUNION_R34_NW REUNION_R50_NE REUNION_R50_SE REUNION_R50_SW REUNION_R50_NW REUNION_R64_NE REUNION_R64_SE REUNION_R64_SW REUNION_R64_NW BOM_LAT BOM_LON BOM_TYPE BOM_WIND BOM_PRES BOM_TNUM BOM_CI BOM_RMW BOM_R34_NE BOM_R34_SE BOM_R34_SW BOM_R34_NW BOM_R50_NE BOM_R50_SE BOM_R50_SW BOM_R50_NW BOM_R64_NE BOM_R64_SE BOM_R64_SW BOM_R64_NW BOM_ROCI BOM_POCI BOM_EYE BOM_POS_METHOD BOM_PRES_METHOD NADI_LAT NADI_LON NADI_CAT NADI_WIND NADI_PRES WELLINGTON_LAT WELLINGTON_LON WELLINGTON_WIND WELLINGTON_PRES DS824_LAT DS824_LON DS824_STAGE DS824_WIND DS824_PRES TD9636_LAT TD9636_LON TD9636_STAGE TD9636_WIND TD9636_PRES TD9635_LAT TD9635_LON TD9635_WIND TD9635_PRES TD9635_ROCI NEUMANN_LAT NEUMANN_LON NEUMANN_CLASS NEUMANN_WIND NEUMANN_PRES MLC_LAT MLC_LON MLC_CLASS MLC_WIND MLC_PRES USA_GUST BOM_GUST BOM_GUST_PER REUNION_GUST REUNION_GUST_PER USA_SEAHGT USA_SEARAD_NE USA_SEARAD_SE USA_SEARAD_SW USA_SEARAD_NW STORM_SPEED STORM_DIR
1940286N16115 1940 73 WP MM NOT_NAMED 1940-10-11 12:00:00 NR 15.8000 115.000 main 503 503 __________O___ -1 15.8000 115.000 7 4 270
1940286N16115 1940 73 WP MM NOT_NAMED 1940-10-11 15:00:00 NR 15.8002 114.788 main 524 524 __________P___ -1 15.8002 114.788 7 4 270
1940286N16115 1940 73 WP MM NOT_NAMED 1940-10-11 18:00:00 NR 15.8002 114.580 main 546 533 __________P___ -1 15.8002 114.580 7 4 270
1940286N16115 1940 73 WP MM NOT_NAMED 1940-10-11 21:00:00 NR 15.8001 114.382 main 533 516 __________P___ -1 15.8001 114.382 7 4 270
1940286N16115 1940 73 WP MM NOT_NAMED 1940-10-12 00:00:00 NR 15.8000 114.200 main 516 500 __________O___ -1 15.8000 114.200 7 3 270
1940286N16115 1940 73 WP MM NOT_NAMED 1940-10-12 03:00:00 NR 15.7999 114.036 main 500 492 __________P___ -1 15.7999 114.036 7 3 270
1940286N16115 1940 73 WP MM NOT_NAMED 1940-10-12 06:00:00 NR 15.7999 113.885 main 492 477 __________P___ -1 15.7999 113.885 7 3 270
1940286N16115 1940 73 WP MM NOT_NAMED 1940-10-12 09:00:00 NR 15.7999 113.742 main 477 469 __________P___ -1 15.7999 113.742 7 3 270
1940286N16115 1940 73 WP MM NOT_NAMED 1940-10-12 12:00:00 NR 15.8000 113.600 main 469 462 __________O___ -1 15.8000 113.600 7 2 268
1940286N16115 1940 73 WP MM NOT_NAMED 1940-10-12 15:00:00 NR 15.7911 113.527 main 462 454 __________P___ -1 15.7911 113.527 7 2 264
1940286N16115 1940 73 WP MM NOT_NAMED 1940-10-12 18:00:00 NR 15.7837 113.442 main 454 447 __________P___ -1 15.7837 113.442 7 2 268
1940286N16115 1940 73 WP MM NOT_NAMED 1940-10-12 21:00:00 NR 15.7845 113.286 main 447 426 __________P___ -1 15.7845 113.286 7 4 272
1940286N16115 1940 73 WP MM NOT_NAMED 1940-10-13 00:00:00 NR 15.8000 113.000 main 426 385 __________O___ -1 15.8000 113.000 7 8 273
1940286N16115 1940 73 WP MM NOT_NAMED 1940-10-13 03:00:00 NR 15.8284 112.503 main 385 329 __________P___ -1 15.8284 112.503 7 11 274
1940286N16115 1940 73 WP MM NOT_NAMED 1940-10-13 06:00:00 NR 15.8713 111.877 main 329 258 __________P___ -1 15.8713 111.877 7 13 275
1940286N16115 1940 73 WP MM NOT_NAMED 1940-10-13 09:00:00 NR 15.9284 111.188 main 258 193 __________P___ -1 15.9284 111.188 7 13 276
1940286N16115 1940 73 WP MM NOT_NAMED 1940-10-13 12:00:00 NR 16.0000 110.500 main 193 147 __________O___ -1 16.0000 110.500 7 13 276
1940286N16115 1940 73 WP MM NOT_NAMED 1940-10-13 15:00:00 NR 16.0653 109.874 main 147 100 __________P___ -1 16.0653 109.874 7 12 277
1940286N16115 1940 73 WP MM NOT_NAMED 1940-10-13 18:00:00 NR 16.1476 109.267 main 100 48 __________P___ -1 16.1476 109.267 7 11 280
1940286N16115 1940 73 WP MM NOT_NAMED 1940-10-13 21:00:00 NR 16.2560 108.702 main 54 24 __________P___ -1 16.2560 108.702 7 11 284
1940286N16115 1940 73 WP MM NOT_NAMED 1940-10-14 00:00:00 NR 16.4000 108.200 main 24 11 __________O___ -1 16.4000 108.200 7 9 290
1940286N16115 1940 73 WP MM NOT_NAMED 1940-10-14 03:00:00 NR 16.5720 107.781 main 21 0 __________P___ -1 16.5720 107.781 7 8 297
1940286N16115 1940 73 WP MM NOT_NAMED 1940-10-14 06:00:00 NR 16.7815 107.425 main 10 0 __________P___ -1 16.7815 107.425 7 8 305
1940286N16115 1940 73 WP MM NOT_NAMED 1940-10-14 09:00:00 NR 17.0253 107.106 main 0 0 __________P___ -1 17.0253 107.106 7 8 311
1940286N16115 1940 73 WP MM NOT_NAMED 1940-10-14 12:00:00 NR 17.3000 106.800 main 0 0 __________O___ -1 17.3000 106.800 7 8 314
1940286N16115 1940 73 WP MM NOT_NAMED 1940-10-14 15:00:00 NR 17.6015 106.487 main 0 0 __________P___ -1 17.6015 106.487 7 9 316
1940286N16115 1940 73 WP MM NOT_NAMED 1940-10-14 18:00:00 NR 17.9233 106.164 main 0 0 __________P___ -1 17.9233 106.164 7 9 317
1940286N16115 1940 73 WP MM NOT_NAMED 1940-10-14 21:00:00 NR 18.2585 105.834 main 0 0 __________P___ -1 18.2585 105.834 7 9 317
1940286N16115 1940 73 WP MM NOT_NAMED 1940-10-15 00:00:00 NR 18.6000 105.500 main 0 __________O___ -1 18.6000 105.500 7 9 317

デジタル台風データ・検索

IBTrACS Databaseについて

本データベースは、米国NOAAが公開する1842年以降の世界の熱帯低気圧のベストトラックデータアーカイブInternational Best Track Archive for Climate Stewardship (IBTrACS)を、ウェブで閲覧しやすい形式に変換したものです。

最終更新日:2021-10-21